This demonstration page uses our WeatherBlox Daily Observations layout. Learn more.

Left ArrowRight Arrow

39.08367, -84.50855

Hourly Observations for January 30, 2015

Temp ( °F °C ) Dew Point ( °F °C ) Humidity (%) Winds ( mph kmh ) Pressure ( in mb ) Visibility ( mi km ) Precip ( " mm )
12:26 am 00:26 Cloudy 34 1 28 -2 81 81 VRB 5 7 30.24 1024 9 14.48406 0 0
12:42 am 00:42 Cloudy 34 1 28 -2 81 81 VRB 6 9 30.24 1024 10 16.0934 0 0
12:53 am 00:53 Cloudy 34 1.1 27 -2.8 76 76 VRB 7 11 30.23 1024 10 16.0934 0 0
1:53 am 01:53 Cloudy 35 1.7 26 -3.3 70 70 Calm 30.23 1024 10 16.0934 0 0
2:53 am 02:53 Cloudy 35 1.7 26 -3.3 70 70 WNW 8 13 30.25 1025 10 16.0934 0 0
3:53 am 03:53 Cloudy 34 1.1 24 -4.4 67 67 W 8 13 30.27 1025 10 16.0934 0 0
4:53 am 04:53 Cloudy 34 1.1 24 -4.4 67 67 WNW 10 17 30.28 1025 10 16.0934 0 0
5:53 am 05:53 Cloudy with Light Snow 34 1.1 24 -4.4 67 67 NNW 15 24 30.31 1027 6 9.65604 0 0.0254
5:57 am 05:57 Cloudy with Light Snow 31 -0.6 27 -2.8 85 85 NNW 18 30 30.33 1027 0.75 1.207005 0 0.0254
7:53 am 07:53 Cloudy 29 -1.7 19 -7.2 66 66 N 13 20 30.4 1029 10 16.0934 0 0
8:53 am 08:53 Cloudy 28 -2.2 15 -9.4 58 58 NNW 12 19 30.43 1031 10 16.0934 0 0
9:53 am 09:53 Mostly Cloudy 28 -2.2 13 -10.6 53 53 N 12 19 30.47 1032 10 16.0934 0 0
10:53 am 10:53 Mostly Cloudy with Light Snow 27 -2.8 15 -9.4 61 61 N 14 22 30.5 1033 9 14.48406 0 0.0254
11:53 am 11:53 Cloudy 27 -2.8 14 -10 58 58 N 12 19 30.52 1033 10 16.0934 0 0.0254
12:53 pm 12:53 Mostly Cloudy 28 -2.2 13 -10.6 53 53 NNW 16 26 30.5 1033 10 16.0934 0 0
1:53 pm 13:53 Mostly Cloudy 31 -0.6 15 -9.4 52 52 NW 8 13 30.49 1032 10 16.0934 0 0
2:53 pm 14:53 Mostly Cloudy 30 -1.1 14 -10 51 51 N 13 20 30.48 1032 10 16.0934 0 0
3:53 pm 15:53 Sunny 31 -0.6 14 -10 49 49 NNW 7 11 30.48 1032 10 16.0934 0 0
4:53 pm 16:53 Sunny 29 -1.7 14 -10 54 54 VRB 5 7 30.49 1032 10 16.0934 0 0
5:53 pm 17:53 Sunny 27 -2.8 14 -10 58 58 N 5 7 30.49 1033 10 16.0934 0 0
6:53 pm 18:53 Clear 26 -3.3 14 -10 60 60 NNE 6 9 30.5 1033 10 16.0934 0 0
7:53 pm 19:53 Clear 24 -4.4 14 -10 65 65 Calm 30.5 1033 10 16.0934 0 0
8:53 pm 20:53 Clear 22 -5.6 16 -8.9 78 78 Calm 30.5 1033 10 16.0934 0 0
9:53 pm 21:53 Clear 22 -5.6 16 -8.9 78 78 Calm 30.5 1033 10 16.0934 0 0
10:53 pm 22:53 Clear 19 -7.2 15 -9.4 84 84 Calm 30.49 1033 10 16.0934 0 0
11:53 pm 23:53 Clear 18 -7.8 15 -9.4 88 88 Calm 30.48 1032 10 16.0934 0 0

Powered by AerisWeather